createdAt,value
2023-02-01T00:00:46.547Z,11.18
2023-02-01T00:03:16.585Z,11.31
2023-02-01T00:05:46.748Z,10.92
2023-02-01T00:08:15.380Z,11.23
2023-02-01T00:10:44.769Z,10.81
2023-02-01T00:13:13.519Z,11.00
2023-02-01T00:15:42.518Z,11.11
2023-02-01T00:18:11.818Z,10.58
2023-02-01T00:20:40.945Z,10.66
2023-02-01T00:26:38.863Z,11.02
2023-02-01T00:29:12.770Z,10.84
2023-02-01T00:31:45.415Z,11.48
2023-02-01T00:34:17.342Z,11.75
2023-02-01T00:36:47.871Z,11.02
2023-02-01T00:39:18.785Z,11.32
2023-02-01T00:41:48.191Z,11.14
2023-02-01T00:44:17.435Z,11.14
2023-02-01T00:46:46.767Z,11.05
2023-02-01T00:49:16.452Z,10.99
2023-02-01T00:51:45.265Z,11.13
2023-02-01T00:54:14.753Z,11.02
2023-02-01T00:56:43.500Z,11.08
2023-02-01T00:59:14.047Z,10.83
2023-02-01T01:01:43.148Z,11.54
2023-02-01T01:04:13.197Z,11.32
2023-02-01T01:06:42.565Z,11.06
2023-02-01T01:09:11.620Z,11.38
2023-02-01T01:11:41.384Z,11.29
2023-02-01T01:14:13.689Z,11.54
2023-02-01T01:16:47.154Z,10.90
2023-02-01T01:19:22.937Z,11.43
2023-02-01T01:21:53.041Z,11.33
2023-02-01T01:24:28.899Z,11.38
2023-02-01T01:27:03.158Z,11.32
2023-02-01T01:29:32.803Z,11.40
2023-02-01T01:32:02.304Z,11.36
2023-02-01T01:34:32.901Z,11.46
2023-02-01T01:37:02.525Z,11.30
2023-02-01T01:39:32.649Z,11.79
2023-02-01T01:42:02.023Z,11.30
2023-02-01T01:45:02.763Z,11.41
2023-02-01T01:47:39.387Z,12.08
2023-02-01T01:50:14.758Z,12.05
2023-02-01T01:52:48.871Z,11.78
2023-02-01T01:55:20.849Z,11.15
2023-02-01T01:58:01.126Z,11.58
2023-02-01T02:00:32.534Z,11.15
2023-02-01T02:03:18.968Z,11.06
2023-02-01T02:05:51.402Z,11.15
2023-02-01T02:08:22.273Z,11.12
2023-02-01T02:11:11.286Z,11.53
2023-02-01T02:13:45.306Z,10.78
2023-02-01T02:16:45.992Z,11.17
2023-02-01T02:19:18.985Z,11.38
2023-02-01T02:22:11.471Z,11.37
2023-02-01T02:25:25.695Z,10.99
2023-02-01T02:28:02.923Z,10.75
2023-02-01T02:31:02.608Z,10.84
2023-02-01T02:33:54.826Z,11.26
2023-02-01T02:36:49.339Z,11.38
2023-02-01T02:39:38.268Z,11.27
2023-02-01T02:42:41.919Z,11.39
2023-02-01T02:46:00.618Z,11.10
2023-02-01T02:48:47.563Z,10.71
2023-02-01T02:51:45.867Z,11.07
2023-02-01T02:54:40.131Z,11.14
2023-02-01T02:57:33.849Z,11.13
2023-02-01T03:00:26.317Z,11.76
2023-02-01T03:03:17.256Z,11.88
2023-02-01T03:05:47.897Z,11.64
2023-02-01T03:08:25.205Z,11.60
2023-02-01T03:11:07.049Z,11.72
2023-02-01T03:14:00.180Z,11.12
2023-02-01T03:16:59.059Z,11.68
2023-02-01T03:19:40.434Z,11.19
2023-02-01T03:22:18.543Z,11.71
2023-02-01T03:25:13.057Z,11.15
2023-02-01T03:28:05.155Z,12.00
2023-02-01T03:30:47.158Z,11.04
2023-02-01T03:33:23.295Z,11.47
2023-02-01T03:36:34.917Z,11.40
2023-02-01T03:39:30.235Z,11.49
2023-02-01T03:42:05.126Z,11.33
2023-02-01T03:44:35.511Z,10.86
2023-02-01T03:47:14.950Z,11.64
2023-02-01T03:50:03.264Z,11.70
2023-02-01T03:52:41.714Z,11.42
2023-02-01T03:55:15.113Z,11.28
2023-02-01T03:58:00.953Z,11.25
2023-02-01T04:00:33.434Z,11.42
2023-02-01T04:03:05.260Z,11.39
2023-02-01T04:05:36.381Z,11.07
2023-02-01T04:08:10.037Z,10.88
2023-02-01T04:10:39.978Z,11.21
2023-02-01T04:13:11.556Z,11.14
2023-02-01T04:15:41.678Z,11.35
2023-02-01T04:18:11.152Z,11.04
2023-02-01T04:20:41.024Z,11.15
2023-02-01T04:23:10.215Z,10.98
2023-02-01T04:25:38.797Z,11.38
2023-02-01T04:28:08.972Z,10.81
2023-02-01T04:30:39.665Z,11.03
2023-02-01T04:33:10.475Z,10.88
2023-02-01T04:35:41.244Z,11.29
2023-02-01T04:38:10.291Z,11.01
2023-02-01T04:40:39.640Z,11.49
2023-02-01T04:43:10.949Z,11.42
2023-02-01T04:45:39.925Z,11.26
2023-02-01T04:48:09.684Z,11.50
2023-02-01T04:50:38.710Z,11.63
2023-02-01T04:53:07.574Z,11.46
2023-02-01T04:55:36.783Z,11.58
2023-02-01T04:58:05.222Z,10.96
2023-02-01T05:00:34.944Z,11.29
2023-02-01T05:03:05.861Z,10.85
2023-02-01T05:05:34.510Z,11.27
2023-02-01T05:08:03.149Z,11.38
2023-02-01T05:10:32.095Z,11.49
2023-02-01T05:13:19.793Z,11.25
2023-02-01T05:15:48.835Z,10.84
2023-02-01T05:18:17.406Z,11.33
2023-02-01T05:20:46.576Z,11.25
2023-02-01T05:23:15.872Z,11.19
2023-02-01T05:25:46.312Z,11.51
2023-02-01T05:28:14.885Z,11.30
2023-02-01T05:30:44.870Z,11.04
2023-02-01T05:33:13.457Z,10.98
2023-02-01T05:35:42.634Z,11.13
2023-02-01T05:38:11.972Z,11.48
2023-02-01T05:40:41.477Z,11.26
2023-02-01T05:43:10.178Z,10.96
2023-02-01T05:45:38.970Z,11.41
2023-02-01T05:48:09.333Z,11.30
2023-02-01T05:50:39.275Z,11.42
2023-02-01T05:53:10.921Z,11.07
2023-02-01T05:55:40.903Z,11.03
2023-02-01T05:58:10.249Z,10.96
2023-02-01T06:00:38.866Z,10.79
2023-02-01T06:03:08.919Z,10.93
2023-02-01T06:05:38.551Z,10.88
2023-02-01T06:08:09.223Z,10.87
2023-02-01T06:10:38.887Z,11.25
2023-02-01T06:13:08.121Z,10.96
2023-02-01T06:15:39.399Z,10.71
2023-02-01T06:18:08.968Z,10.95
2023-02-01T06:20:37.867Z,11.14
2023-02-01T06:23:06.587Z,11.24
2023-02-01T06:25:34.950Z,11.18
2023-02-01T06:28:07.281Z,11.11
2023-02-01T06:30:36.843Z,11.18
2023-02-01T06:33:05.276Z,11.20
2023-02-01T06:35:34.184Z,11.29
2023-02-01T06:38:02.687Z,11.17
2023-02-01T06:40:31.283Z,11.52
2023-02-01T06:43:00.928Z,11.26
2023-02-01T06:45:30.419Z,11.09
2023-02-01T06:48:02.266Z,11.22
2023-02-01T06:50:31.108Z,11.44
2023-02-01T06:53:00.373Z,11.47
2023-02-01T06:55:29.993Z,11.15
2023-02-01T06:57:59.556Z,11.28
2023-02-01T07:00:28.368Z,11.05
2023-02-01T07:02:59.627Z,11.27
2023-02-01T07:05:29.801Z,11.32
2023-02-01T07:07:59.698Z,11.43
2023-02-01T07:10:29.535Z,11.40
2023-02-01T07:13:01.652Z,11.36
2023-02-01T07:15:30.720Z,11.31
2023-02-01T07:17:59.488Z,11.60
2023-02-01T07:20:33.200Z,11.29
2023-02-01T07:23:01.855Z,11.26
2023-02-01T07:25:33.344Z,11.60
2023-02-01T07:28:03.514Z,11.51
2023-02-01T07:30:33.957Z,11.58
2023-02-01T07:33:02.756Z,11.29
2023-02-01T07:35:33.552Z,11.56
2023-02-01T07:38:03.093Z,11.14
2023-02-01T07:40:32.983Z,11.42
2023-02-01T07:43:02.911Z,11.44
2023-02-01T07:45:36.717Z,11.56
2023-02-01T07:48:07.298Z,11.86
2023-02-01T07:50:38.942Z,11.35
2023-02-01T07:53:09.201Z,11.26
2023-02-01T07:55:42.891Z,11.27
2023-02-01T07:58:11.897Z,11.22
2023-02-01T08:01:01.715Z,11.39
2023-02-01T08:03:33.263Z,11.31
2023-02-01T08:06:02.106Z,11.15
2023-02-01T08:08:31.142Z,11.34
2023-02-01T08:11:05.451Z,11.38
2023-02-01T08:13:37.491Z,11.48
2023-02-01T08:16:12.045Z,11.31
2023-02-01T08:18:43.178Z,11.29
2023-02-01T08:21:18.879Z,11.38
2023-02-01T08:23:48.139Z,11.25
2023-02-01T08:26:27.488Z,11.51
2023-02-01T08:29:02.529Z,11.46
2023-02-01T08:31:33.550Z,11.30
2023-02-01T08:34:06.526Z,11.51
2023-02-01T08:36:35.657Z,11.41
2023-02-01T08:39:10.801Z,11.41
2023-02-01T08:41:40.845Z,11.42
2023-02-01T08:44:11.083Z,11.35
2023-02-01T08:46:43.147Z,11.24
2023-02-01T08:49:13.056Z,11.34
2023-02-01T08:51:43.210Z,11.17
2023-02-01T08:54:13.664Z,11.24
2023-02-01T08:56:42.475Z,11.18
2023-02-01T08:59:11.396Z,11.80
2023-02-01T09:01:42.150Z,11.46
2023-02-01T09:04:11.066Z,11.36
2023-02-01T09:06:43.358Z,11.48
2023-02-01T09:09:12.483Z,11.97
2023-02-01T09:11:41.448Z,11.43
2023-02-01T09:14:10.712Z,11.63
2023-02-01T09:16:38.954Z,11.18
2023-02-01T09:19:27.187Z,11.51
2023-02-01T09:21:58.278Z,11.50
2023-02-01T09:24:27.147Z,11.49
2023-02-01T09:26:56.894Z,11.42
2023-02-01T09:29:26.088Z,11.59
2023-02-01T09:32:03.371Z,11.40
2023-02-01T09:34:33.099Z,11.50
2023-02-01T09:37:02.028Z,11.25
2023-02-01T09:39:31.674Z,11.41
2023-02-01T09:42:34.647Z,11.49
2023-02-01T09:45:31.534Z,11.40
2023-02-01T09:48:12.353Z,11.63
2023-02-01T09:50:46.398Z,11.13
2023-02-01T09:53:23.811Z,11.10
2023-02-01T09:55:58.037Z,11.21
2023-02-01T09:58:41.631Z,11.36
2023-02-01T10:01:21.366Z,11.29
2023-02-01T10:03:52.257Z,10.95
2023-02-01T10:06:37.111Z,11.50
2023-02-01T10:09:17.701Z,11.45
2023-02-01T10:11:57.284Z,11.12
2023-02-01T10:14:30.926Z,11.24
2023-02-01T10:17:36.946Z,11.58
2023-02-01T10:20:29.355Z,11.42
2023-02-01T10:23:34.462Z,10.86
2023-02-01T10:26:26.606Z,11.20
2023-02-01T10:29:04.976Z,10.94
2023-02-01T10:31:39.209Z,11.21
2023-02-01T10:34:19.255Z,10.07
2023-02-01T10:37:26.165Z,10.78
2023-02-01T10:40:11.359Z,10.73
2023-02-01T10:42:42.395Z,11.54
2023-02-01T10:45:19.418Z,10.87
2023-02-01T10:47:51.645Z,10.99
2023-02-01T10:50:45.224Z,11.12
2023-02-01T10:53:23.957Z,10.94
2023-02-01T10:55:54.984Z,10.93
2023-02-01T10:58:31.109Z,11.09
2023-02-01T11:01:10.120Z,10.64
2023-02-01T11:03:41.942Z,10.83
2023-02-01T11:06:30.322Z,10.97
2023-02-01T11:09:10.225Z,10.75
2023-02-01T11:11:50.982Z,11.00
2023-02-01T11:14:27.771Z,10.87
2023-02-01T11:17:00.121Z,10.88
2023-02-01T11:19:30.313Z,10.81
2023-02-01T11:22:02.521Z,10.85
2023-02-01T11:24:37.170Z,11.14
2023-02-01T11:27:18.935Z,10.87
2023-02-01T11:30:01.802Z,10.91
2023-02-01T11:32:31.796Z,11.25
2023-02-01T11:35:08.712Z,10.75
2023-02-01T11:37:44.751Z,10.64
2023-02-01T11:40:19.315Z,10.72
2023-02-01T11:42:59.255Z,10.06
2023-02-01T11:45:36.674Z,10.18
2023-02-01T11:48:26.291Z,10.43
2023-02-01T11:51:10.186Z,10.30
2023-02-01T11:53:58.024Z,10.22
2023-02-01T11:56:53.721Z,10.17
2023-02-01T11:59:56.414Z,10.04
2023-02-01T12:02:42.127Z,10.30
2023-02-01T12:05:30.629Z,10.51
2023-02-01T12:08:14.040Z,10.20
2023-02-01T12:11:11.586Z,10.25
2023-02-01T12:14:21.707Z,10.12
2023-02-01T12:17:16.832Z,10.00
2023-02-01T12:20:05.665Z,9.43
2023-02-01T12:23:02.937Z,9.93
2023-02-01T12:25:55.997Z,9.94
2023-02-01T12:28:42.827Z,10.17
2023-02-01T12:31:12.067Z,10.05
2023-02-01T12:34:03.379Z,9.46
2023-02-01T12:37:08.591Z,9.74
2023-02-01T12:40:09.531Z,9.09
2023-02-01T12:42:47.616Z,9.27
2023-02-01T12:45:41.086Z,9.41
2023-02-01T12:48:31.515Z,9.44
2023-02-01T12:51:11.294Z,9.68
2023-02-01T12:53:49.647Z,9.32
2023-02-01T12:56:41.003Z,9.55
2023-02-01T12:59:37.007Z,9.22
2023-02-01T13:02:34.984Z,9.26
2023-02-01T13:05:26.609Z,9.52
2023-02-01T13:08:02.656Z,9.07
2023-02-01T13:10:50.517Z,9.61
2023-02-01T13:13:20.061Z,9.77
2023-02-01T13:16:19.332Z,8.97
2023-02-01T13:18:53.002Z,9.59
2023-02-01T13:21:34.441Z,9.13
2023-02-01T13:24:04.190Z,9.76
2023-02-01T13:26:33.192Z,9.80
2023-02-01T13:29:07.565Z,9.22
2023-02-01T13:31:59.484Z,8.90
2023-02-01T13:34:50.950Z,9.31
2023-02-01T13:37:32.431Z,9.07
2023-02-01T13:40:26.514Z,8.76
2023-02-01T13:42:59.262Z,9.79
2023-02-01T13:45:39.181Z,9.13
2023-02-01T13:48:17.299Z,9.88
2023-02-01T13:50:51.565Z,9.30
2023-02-01T13:53:23.222Z,8.19
2023-02-01T13:56:05.448Z,9.27
2023-02-01T13:58:39.861Z,9.17
2023-02-01T14:01:23.871Z,8.32
2023-02-01T14:04:01.153Z,9.09
2023-02-01T14:06:34.700Z,8.98
2023-02-01T14:09:14.740Z,9.21
2023-02-01T14:12:00.436Z,8.68
2023-02-01T14:14:30.373Z,9.24
2023-02-01T14:17:00.123Z,8.95
2023-02-01T14:19:34.865Z,9.12
2023-02-01T14:22:26.084Z,8.94
2023-02-01T14:24:59.775Z,8.76
2023-02-01T14:27:37.058Z,8.65
2023-02-01T14:30:16.253Z,8.64
2023-02-01T14:32:48.351Z,8.58
2023-02-01T14:35:28.676Z,8.61
2023-02-01T14:38:10.011Z,8.88
2023-02-01T14:40:39.254Z,9.00
2023-02-01T14:43:32.906Z,9.15
2023-02-01T14:46:00.450Z,9.07
2023-02-01T14:48:31.321Z,8.99
2023-02-01T14:51:01.875Z,8.68
2023-02-01T14:53:36.400Z,8.55
2023-02-01T14:56:14.143Z,8.55
2023-02-01T14:59:03.338Z,8.80
2023-02-01T15:01:33.945Z,8.96
2023-02-01T15:04:11.576Z,8.88
2023-02-01T15:06:43.278Z,8.92
2023-02-01T15:09:18.868Z,8.58
2023-02-01T15:12:03.268Z,8.49
2023-02-01T15:14:41.326Z,8.54
2023-02-01T15:17:27.168Z,8.00
2023-02-01T15:20:20.899Z,8.13
2023-02-01T15:23:06.094Z,8.00
2023-02-01T15:25:39.996Z,7.90
2023-02-01T15:28:16.758Z,8.13
2023-02-01T15:31:05.125Z,8.13
2023-02-01T15:33:35.980Z,8.49
2023-02-01T15:36:07.451Z,8.60
2023-02-01T15:38:43.155Z,8.19
2023-02-01T15:41:18.991Z,8.72
2023-02-01T15:43:51.334Z,8.49
2023-02-01T15:46:34.862Z,8.42
2023-02-01T15:49:04.154Z,8.56
2023-02-01T15:51:34.545Z,8.60
2023-02-01T15:54:11.885Z,8.18
2023-02-01T15:56:43.252Z,8.23
2023-02-01T15:59:19.560Z,8.07
2023-02-01T16:01:51.497Z,7.95
2023-02-01T16:04:34.454Z,7.76
2023-02-01T16:07:07.023Z,8.27
2023-02-01T16:09:57.079Z,7.54
2023-02-01T16:12:47.776Z,7.91
2023-02-01T16:15:17.465Z,8.00
2023-02-01T16:17:47.306Z,8.16
2023-02-01T16:20:17.047Z,8.19
2023-02-01T16:22:46.825Z,8.27
2023-02-01T16:25:15.792Z,7.87
2023-02-01T16:27:45.371Z,7.72
2023-02-01T16:30:17.833Z,7.93
2023-02-01T16:32:47.258Z,7.87
2023-02-01T16:35:43.601Z,7.01
2023-02-01T16:38:16.788Z,7.82
2023-02-01T16:40:47.764Z,7.41
2023-02-01T16:43:21.892Z,7.32
2023-02-01T16:45:53.916Z,7.93
2023-02-01T16:48:28.991Z,7.37
2023-02-01T16:51:03.184Z,7.17
2023-02-01T16:53:41.699Z,7.51
2023-02-01T16:56:23.693Z,7.42
2023-02-01T16:58:55.969Z,7.83
2023-02-01T17:01:26.129Z,7.55
2023-02-01T17:03:59.503Z,7.60
2023-02-01T17:06:30.698Z,7.83
2023-02-01T17:09:01.300Z,7.33
2023-02-01T17:11:32.100Z,7.05
2023-02-01T17:14:38.484Z,6.39
2023-02-01T17:17:07.607Z,5.71
2023-02-01T17:19:37.937Z,7.02
2023-02-01T17:22:08.424Z,6.90
2023-02-01T17:24:48.360Z,7.26
2023-02-01T17:27:20.730Z,6.81
2023-02-01T17:29:50.592Z,7.26
2023-02-01T17:32:27.196Z,6.68
2023-02-01T17:35:01.612Z,7.29
2023-02-01T17:37:34.395Z,7.06
2023-02-01T17:40:03.757Z,7.36
2023-02-01T17:42:37.351Z,7.35
2023-02-01T17:45:29.264Z,6.71
2023-02-01T17:47:59.728Z,7.70
2023-02-01T17:50:33.709Z,7.37
2023-02-01T17:53:03.812Z,7.66
2023-02-01T17:55:37.417Z,7.47
2023-02-01T17:58:06.702Z,7.17
2023-02-01T18:00:38.047Z,7.30
2023-02-01T18:03:07.503Z,6.95
2023-02-01T18:05:42.238Z,7.51
2023-02-01T18:08:12.074Z,7.48
2023-02-01T18:10:44.106Z,7.14
2023-02-01T18:13:14.863Z,7.46
2023-02-01T18:15:45.274Z,7.06
2023-02-01T18:18:16.197Z,7.16
2023-02-01T18:20:47.409Z,7.47
2023-02-01T18:23:23.078Z,7.21
2023-02-01T18:25:54.213Z,7.01
2023-02-01T18:28:23.750Z,7.55
2023-02-01T18:30:55.071Z,7.66
2023-02-01T18:33:23.805Z,7.54
2023-02-01T18:35:53.060Z,7.33
2023-02-01T18:38:22.525Z,7.09
2023-02-01T18:40:55.062Z,7.23
2023-02-01T18:43:28.014Z,6.88
2023-02-01T18:45:59.451Z,7.50
2023-02-01T18:48:34.075Z,7.38
2023-02-01T18:51:03.938Z,7.17
2023-02-01T18:53:34.512Z,7.31
2023-02-01T18:56:03.591Z,7.22
2023-02-01T18:58:34.775Z,7.36
2023-02-01T19:01:14.509Z,7.07
2023-02-01T19:03:55.190Z,7.24
2023-02-01T19:06:35.961Z,7.20
2023-02-01T19:09:05.434Z,7.24
2023-02-01T19:11:35.626Z,7.15
2023-02-01T19:14:06.814Z,7.46
2023-02-01T19:16:41.461Z,7.07
2023-02-01T19:19:10.875Z,7.16
2023-02-01T19:21:39.301Z,7.64
2023-02-01T19:24:09.211Z,6.73
2023-02-01T19:26:41.675Z,7.36
2023-02-01T19:29:11.243Z,7.22
2023-02-01T19:31:42.030Z,7.54
2023-02-01T19:34:12.217Z,7.75
2023-02-01T19:36:42.922Z,7.87
2023-02-01T19:39:11.627Z,7.98
2023-02-01T19:41:41.563Z,7.91
2023-02-01T19:44:11.433Z,8.12
2023-02-01T19:46:48.923Z,7.52
2023-02-01T19:49:19.369Z,7.61
2023-02-01T19:51:49.354Z,7.81
2023-02-01T19:54:19.391Z,7.59
2023-02-01T19:56:51.513Z,7.79
2023-02-01T19:59:23.623Z,7.24
2023-02-01T20:01:52.623Z,7.15
2023-02-01T20:04:22.182Z,7.18
2023-02-01T20:06:51.307Z,7.21
2023-02-01T20:09:22.914Z,7.12
2023-02-01T20:11:54.745Z,7.49
2023-02-01T20:14:29.568Z,7.29
2023-02-01T20:17:00.103Z,7.38
2023-02-01T20:19:30.991Z,7.11
2023-02-01T20:22:01.594Z,7.09
2023-02-01T20:24:30.451Z,6.97
2023-02-01T20:27:02.348Z,7.17
2023-02-01T20:29:31.558Z,7.02
2023-02-01T20:32:00.925Z,7.00
2023-02-01T20:34:31.299Z,7.32
2023-02-01T20:37:00.653Z,7.58
2023-02-01T20:39:30.824Z,7.28
2023-02-01T20:42:00.068Z,6.86
2023-02-01T20:44:30.643Z,6.85
2023-02-01T20:47:00.664Z,7.25
2023-02-01T20:49:30.709Z,7.03
2023-02-01T20:52:01.206Z,7.14
2023-02-01T20:54:30.814Z,7.18
2023-02-01T20:57:00.038Z,7.11
2023-02-01T20:59:30.732Z,7.39
2023-02-01T21:02:00.397Z,7.43
2023-02-01T21:04:31.896Z,7.02
2023-02-01T21:07:03.643Z,7.18
2023-02-01T21:09:32.716Z,6.89
2023-02-01T21:12:01.478Z,7.31
2023-02-01T21:14:31.175Z,7.69
2023-02-01T21:17:00.474Z,7.89
2023-02-01T21:19:43.370Z,7.29
2023-02-01T21:22:14.413Z,7.34
2023-02-01T21:24:43.620Z,7.11
2023-02-01T21:27:13.608Z,7.36
2023-02-01T21:29:43.117Z,7.17
2023-02-01T21:32:12.320Z,7.59
2023-02-01T21:34:41.608Z,7.35
2023-02-01T21:37:10.572Z,7.14
2023-02-01T21:39:39.026Z,7.19
2023-02-01T21:42:18.331Z,7.05
2023-02-01T21:44:51.126Z,7.16
2023-02-01T21:47:25.599Z,7.31
2023-02-01T21:49:57.138Z,7.34
2023-02-01T21:52:31.147Z,7.31
2023-02-01T21:55:00.353Z,7.30
2023-02-01T21:57:30.463Z,7.36
2023-02-01T22:00:00.298Z,7.21
2023-02-01T22:02:31.792Z,7.27
2023-02-01T22:05:01.356Z,7.33
2023-02-01T22:07:31.580Z,7.48
2023-02-01T22:10:02.591Z,7.53
2023-02-01T22:12:32.019Z,7.31
2023-02-01T22:15:01.544Z,7.15
2023-02-01T22:20:24.375Z,7.38
2023-02-01T22:22:54.305Z,7.89
2023-02-01T22:25:26.752Z,7.26
2023-02-01T22:28:33.134Z,7.08
2023-02-01T22:30:47.896Z,6.83
2023-02-01T22:33:18.419Z,6.95
2023-02-01T22:35:51.608Z,6.85
2023-02-01T22:38:21.793Z,6.98
2023-02-01T22:41:01.712Z,6.62
2023-02-01T22:43:33.957Z,6.86
2023-02-01T22:46:06.441Z,6.92
2023-02-01T22:48:40.355Z,6.99
2023-02-01T22:51:19.289Z,7.13
2023-02-01T22:54:00.385Z,6.92
2023-02-01T22:56:35.689Z,6.82
2023-02-01T22:59:07.179Z,7.30
2023-02-01T23:01:35.993Z,7.59
2023-02-01T23:04:07.262Z,7.88
2023-02-01T23:06:36.179Z,7.88
2023-02-01T23:09:25.050Z,7.89
2023-02-01T23:11:56.181Z,7.70
2023-02-01T23:14:28.231Z,7.97
2023-02-01T23:17:09.225Z,8.12
2023-02-01T23:19:40.554Z,8.27
2023-02-01T23:22:11.419Z,7.96
2023-02-01T23:24:41.477Z,8.16
2023-02-01T23:27:10.476Z,8.03
2023-02-01T23:29:39.463Z,8.36
2023-02-01T23:32:09.984Z,8.24
2023-02-01T23:34:41.679Z,8.09
2023-02-01T23:37:11.606Z,8.47
2023-02-01T23:39:41.539Z,8.06
2023-02-01T23:42:11.501Z,7.97
2023-02-01T23:44:40.641Z,8.02
2023-02-01T23:47:11.404Z,8.45
2023-02-01T23:49:41.678Z,7.90
2023-02-01T23:52:12.037Z,8.05
2023-02-01T23:54:42.300Z,7.91
2023-02-01T23:57:11.260Z,8.12
2023-02-01T23:59:39.999Z,8.07
